На главную страницу сайта
· Наш магазин · Объявления · Рейтинг · Статьи · Частоты · Копилка · Аэродромы · Live!
· Файлы · Диапазоны · Сигналы · Музей · Mods · LPD-форум · Клуб · Радиостанции
На сайте: гостей - 172,
участников - 15 [ 50rtm, Ionosphere, Edd, Kim Mathers, entropy, RoLiK, Polonez, fox0909, Гарри Ясный, SARMAT, Mexico, marquis, ats52, AndyRadist, Pavelectric]
 · Начало · Опросы · События · Статистика · Поиск · Регистрация · Правила · FAQ · Галерея ·
 Форум —› Авиационный диапазон —› Лётные происшествия и катастрофы в 2021 году 
Блоки питания для радиотехники: Ajetrays, Alan, Manson, Optim, RM, Vega, Yaesu, Энергомаш


Alan K35
(1 Ампер)
руб.

RM LPS 105
(5 Ампер)
руб.

Manson SPA-8100
(10/12 Ампер)
руб.

Optim PS-20
(20/22 Ампер)
руб.

Vega PSS-3035
(30/35 Ампер)
руб.
Автор Сообщение
Фотограф
Модератор раздела
Offline6.3
с янв 2006
Чкаловский-Круг
Сообщений: 23874

Дата: 08 Янв 2021 16:38:11 #  

Частный легкомоторный самолет Piper PA-28-180 Cherokee RA-2659G разбился под Санкт-Петербургом. Это произошло в Ломоносовском районе Ленинградской области, сообщает Telegram-канал «112». Погибли три человека. Telegram-канал Baza уточняет, что самолет разбился на аэродроме Гостилицы, погиб пилот и двое пассажиров.
Катастрофа произошла через две-три минуты после начала полета с аэродрома в Гостилицах, рассказал 47news его директор Владимир Артикульный. По его словам, воздушное судно упало с высоты 200-300 метров через несколько минут после подъема в воздух.
spbtvmaster
Участник
Offline5.2
с дек 2006
Санкт-Петербург
Сообщений: 1879

Дата: 08 Янв 2021 17:24:03 · Поправил: spbtvmaster (08 Янв 2021 17:25:24) #  

Самолётик это старенький был.
Людей жалко.
Реклама
Google
Konstantin
Участник
Offline5.3
с янв 2008
Внуковская зона
Сообщений: 2721

Дата: 08 Янв 2021 17:32:24 #  

Если не врут, то столкновение с другим ВС в воздухе. https://www.kommersant.ru/doc/4639301?utm_source=yxnews&utm_medium=desktop
Плохиш
Участник
Offline1.6
с дек 2007
Москва
Сообщений: 268

Дата: 08 Янв 2021 17:45:37 #  

Самолётик это старенький был.

Нет такого понятия "старенький самолёт".
Fenix747
Участник
Offline1.5
с июн 2009
Москва 50RS545
Сообщений: 147

Дата: 08 Янв 2021 18:07:08 #  

Столкновение в воздухе. Пилот второго самолёта (Цесна) посадил самолёт, увезли с травмами. Пока больше подробностей не сказали. Разбившийся взлетал.
Фотограф
Модератор раздела
Offline6.3
с янв 2006
Чкаловский-Круг
Сообщений: 23874

Дата: 08 Янв 2021 18:38:02 #  

Пилот второго самолёта (Цесна) посадил самолёт
Fenix747:
Cessna 150 RA-1488G.
john_qkk
Участник
Offline3.9
с авг 2003
Санкт-Петербург
Сообщений: 4293

Дата: 09 Янв 2021 14:09:20 #  

Согласно данным сервиса Flightradar24, лайнер Boeing 737-500 вылетел из Джакарты в индонезийский город Понтианак на острове Калимантан, однако вскоре после взлета отслеживание его полета прекратилось.

https://www.rbc.ru/society/09/01/2021/5ff989a59a7947e79af69dbf?from=from_main_1
Фотограф
Модератор раздела
Offline6.3
с янв 2006
Чкаловский-Круг
Сообщений: 23874

Дата: 09 Янв 2021 16:23:04 #  

Общее количество человек на борту: 62 человека:
Взрослых: 46
Детей: 7
Младенцев: 3
Бортпроводники: 4
Пилоты: 2

По данным CNN Indonesia, Боинг 737-500 упал в воду недалеко от острова Ланканг. Во время крушения рыбаки увидели взрыв с моря дважды. Позже были найдены обломки и куски кабеля. На место едут полиция и члены службы спасения Basarnas. Информации о том, были ли на борту россияне — в данный момент нет.
SWRadio36
Участник
Offline3.2
с апр 2018
Семилуки
Сообщений: 486

Дата: 09 Янв 2021 18:44:35 #  
Corvus
Участник
Offline3.2
с мая 2003
Самара
Сообщений: 3124

Дата: 11 Янв 2021 11:39:01 #  

Разбившийся в Индонезии Boeing 737-524 при взлете проходил через грозовой фронт и оказался в зоне сильной турбулентности, заявил представитель Агентства метеорологии, климата и геофизики Дэни Сэптиади.

В момент взлета в радиусе 15 км наблюдались большая облачность, сильные осадки и гроза, рассказал господин Сэптиади. «Все самолеты, находившиеся в тот момент в этом районе, должны были испытывать сильную турбулентность»,— приводит его слова портал Detik. В то же время видимость «составляла около 2 км, и это условие подходит для взлета или посадки».


https://www.kommersant.ru/doc/4639664
Corvus
Участник
Offline3.2
с мая 2003
Самара
Сообщений: 3124

Дата: 11 Янв 2021 11:43:45 #  


«Согласно спутниковым данным, в 14:40 в радиусе 15 км от Ченкаренга (район на западе Джакарты. — РБК) были дождевые облака с температурой у верхней границы в -70 °C. Это указывает на высокую нестабильность, самолет, должно быть, испытал сильную турбулентность при прохождении через него», — сказал эксперт.

По данным метеонаблюдений, во время взлета лайнера грозу сопровождали разряды молний. Кроме того, у пилотов могли возникнуть трудности с определением бокового ветра из-за его постоянно меняющегося направления.

https://www.rbc.ru/society/10/01/2021/5ffb02579a794734e5acc1f8



-70 это радиационная температура, вычисляемая на основе инфракрасного излучения от верхней кромки облаков, измеряемого со спутника.

Она может быть ниже реальной температуры, но в любом случае столь низкое значение радиационной температуры говорит о наличии развитых кучево-дождевых облаков с грозами, градом, шквалами и сильными ливнями.
Corvus
Участник
Offline3.2
с мая 2003
Самара
Сообщений: 3124

Дата: 11 Янв 2021 11:51:31 #  

Сводки МЕТАР аэропорта Джакарта

WIII 090430Z 28010KT 9999 SCT020 31/24 Q1008 NOSIG
WIII 090500Z 34012KT 6000 VCTS FEW016CB BKN018 28/24 Q1008 TEMPO 5000 -TSRA RMK CB TO NW AND N
WIII 090530Z 35012KT 5000 VCTS -RA FEW016CB BKN018 26/25 Q1007 NOSIG RMK CB TO NW AND N
WIII 090600Z 34010G20KT 5000 VCTS -RA FEW016CB OVC018 26/24 Q1007 NOSIG RMK CB TO W AND NW
WIII 090630Z 34007KT 2000 TSRA FEW016CB OVC018 25/24 Q1007 NOSIG RMK CB OVER THE FIELD
WIII 090700Z 30007KT 4000 VCTS RA FEW016CB OVC018 25/24 Q1007 NOSIG
WIII 090730Z 30006KT 5000 -RA FEW017CB OVC018 25/24 Q1006 NOSIG
WIII 090800Z 28008KT 4000 -RA BKN016 OVC018 26/24 Q1006 NOSIG
WIII 090830Z 29008KT 4000 RA OVC017 25/24 Q1006 NOSIG
WIII 090900Z 29006KT 6000 -RA BKN017 25/23 Q1006 NOSIG


На момент взлёта (около 07.30) грозы в самом аэропорту уже не было, только дождь с видимостью 5 км.
За час до вылета видимость падала в грозе и ливне до 2 км.

Разумеется, то, что в аэропорту гроза закончилась, никак не говорит об отсутствии грозы в районе катастрофы.
Фотограф
Модератор раздела
Offline6.3
с янв 2006
Чкаловский-Круг
Сообщений: 23874

Дата: 11 Янв 2021 13:13:35 #  

Пишут, что из-за ливня с грозой вылет задержали на час...
Фотограф
Модератор раздела
Offline6.3
с янв 2006
Чкаловский-Круг
Сообщений: 23874

Дата: 11 Янв 2021 20:25:31 #  

Кто-нибудь записывал 8 января с 13:30 до 13:50 МСК в Ленинградской области 123,700 "Бутон" (аэродром Гостилицы)?
Corvus
Участник
Offline3.2
с мая 2003
Самара
Сообщений: 3124

Дата: 13 Янв 2021 09:04:03 #  

Ветка про катастрофы 2020 г. закрыта, напишу тут:

Документальный фильм Леонида Канфера "Тайна гибели Ромео"

https://www.youtube.com/watch?v=igDAFtwPe-s&feature=emb_logo

Почему сбитый иранцами украинский самолет МАУ - не роковая ошибка ПВО "Стражей исламской революции", а преднамеренный, целенаправленный теракт? В своем фильме я исследую все обстоятельства. которые привели к трагедии: военный конфликт между Ираном и США, обстоятельства вылета рейса, действия экипажа, состояние самолета, логистика вылетов из аэропортов. особенности взаимодействия военных в Тегерана. Мы изучили обломки самолета, поражающие элементы. логистику произведения выстрелов ракетами -- всё, всё, всё. Некоторые обстоятельства покажутся просто шокирующими.
 

Создавать сообщения могут только зарегистрированные участники форума.
Войти в форум :: » Логин » Пароль
Начало
Средства связи, рации. Купить радиостанции Motorola, Yaesu, Vertex, приемники, антенны.
Время загрузки страницы (сек.): 0.039; miniBB ®